Luxeuil-Saint-Sauveur (BA 116) Air Base

Airport
ICAO code: 
LFSX
Summary
ICAO Region: 
EUR
Territory: 
Location: 
, Franche-Comte
Serving: 
Luxeuil
Elevation: 
913 ft
Coordinates: 
Aerial View: 
47° 46' 59.272" N, 6° 21' 50.602" E
Metar
Observation
LFSX 060630Z AUTO 00000KT 2000 BR BKN007 OVC062 M01/M01 Q1014
Station
Luxeuil
Date/Time
2021-12-06 06:30:00
Wind direction
Wind speed
00 kts
Lowest cloud amount
broken clouds
Temperature
-1°C
Dew point
-1°C
Humidity
100%
QNH
1014 hPa
Weather condition
n/a

Runways

Designator Length Width Surface Rops
4/22 2315 36 ASP No/No
11/29 2433 45 ASP No/No
Airport map: 
Aerial View: 

SKYbrary Partners:

Safety knowledge contributed by: